Time;durP1;ratioP1;P1;durP2;ratioP2;P2;SDS_P1;SDS_P2;PMS_P1;PMS_P2;Temp;Humidity;BMP_temperature;BMP_pressure;BME280_temperature;BME280_humidity;BME280_pressure;Samples;Min_cycle;Max_cycle;Signal;HPM_P1;HPM_P2
2023/04/03 00:01:13;;;;;;;7.50;6.03;;;0.70;99.90;;;;;;4974576;28;20469;-77
2023/04/03 00:03:41;;;;;;;3.42;3.13;;;0.70;99.90;;;;;;4974583;28;20034;-78
2023/04/03 00:06:08;;;;;;;4.97;4.28;;;0.60;99.90;;;;;;4974567;28;20475;-75
2023/04/03 00:08:34;;;;;;;6.32;5.72;;;0.60;99.90;;;;;;4956993;28;20572;-77
2023/04/03 00:11:00;;;;;;;6.32;4.60;;;0.60;99.90;;;;;;4957214;28;20388;-76
2023/04/03 00:13:26;;;;;;;4.57;4.13;;;0.60;99.90;;;;;;4957162;28;20049;-75
2023/04/03 00:15:52;;;;;;;5.32;4.93;;;0.60;99.90;;;;;;4974500;28;20472;-77
2023/04/03 00:18:18;;;;;;;5.47;4.97;;;0.60;99.90;;;;;;4956959;28;20030;-76
2023/04/03 00:20:44;;;;;;;7.10;4.80;;;0.60;99.90;;;;;;4962413;28;20055;-77
2023/04/03 00:23:10;;;;;;;4.40;4.00;;;0.50;99.90;;;;;;4963451;28;20034;-77
2023/04/03 00:25:35;;;;;;;5.47;4.50;;;0.40;99.90;;;;;;4980944;28;20392;-76
2023/04/03 00:28:01;;;;;;;6.40;4.75;;;0.40;99.90;;;;;;4963442;28;20078;-77
2023/04/03 00:30:27;;;;;;;5.82;4.65;;;0.30;99.90;;;;;;4980819;28;20027;-77
2023/04/03 00:32:53;;;;;;;5.75;4.82;;;0.40;99.90;;;;;;4980264;28;20539;-76
2023/04/03 00:35:20;;;;;;;7.90;5.00;;;0.40;99.90;;;;;;4980554;28;20018;-76
2023/04/03 00:37:47;;;;;;;5.63;4.45;;;0.40;99.90;;;;;;4963341;28;20023;-77
2023/04/03 00:40:14;;;;;;;5.47;4.00;;;0.40;99.90;;;;;;4963375;28;20389;-75
2023/04/03 00:42:42;;;;;;;7.50;6.03;;;0.40;99.90;;;;;;4963209;28;20023;-76
2023/04/03 00:45:10;;;;;;;5.20;4.70;;;0.40;99.90;;;;;;4963419;28;20022;-76
2023/04/03 00:47:37;;;;;;;6.38;4.03;;;0.30;99.90;;;;;;4980629;28;20041;-77
2023/04/03 00:50:03;;;;;;;4.95;4.45;;;0.40;99.90;;;;;;4963357;28;20122;-76
2023/04/03 00:52:31;;;;;;;5.72;4.55;;;0.40;99.90;;;;;;4980452;28;20105;-77
2023/04/03 00:55:05;;;;;;;7.05;5.65;;;0.40;99.90;;;;;;4963328;28;20057;-78
2023/04/03 00:57:32;;;;;;;5.45;4.93;;;0.40;99.90;;;;;;4963194;28;20019;-78
2023/04/03 01:00:05;;;;;;;6.43;5.35;;;0.40;99.90;;;;;;4963121;28;20035;-78
2023/04/03 01:02:31;;;;;;;6.55;5.38;;;0.40;99.90;;;;;;4980515;28;20030;-76
2023/04/03 01:04:57;;;;;;;7.45;5.13;;;0.40;99.90;;;;;;4980596;28;20376;-76
2023/04/03 01:07:28;;;;;;;7.20;4.95;;;0.40;99.90;;;;;;4963062;28;20039;-77
2023/04/03 01:09:59;;;;;;;7.25;6.22;;;0.40;99.90;;;;;;4963352;28;20106;-77
2023/04/03 01:12:36;;;;;;;6.72;5.40;;;0.40;99.90;;;;;;4980433;28;20049;-77
2023/04/03 01:15:15;;;;;;;8.75;7.15;;;0.50;99.90;;;;;;4980600;28;20492;-77
2023/04/03 01:17:53;;;;;;;10.88;6.63;;;0.50;99.90;;;;;;4962933;28;20389;-75
2023/04/03 01:20:42;;;;;;;8.70;7.18;;;0.50;99.90;;;;;;4980177;28;20125;-75
2023/04/03 01:23:10;;;;;;;10.57;8.25;;;0.50;99.90;;;;;;4962983;28;20587;-75
2023/04/03 01:25:52;;;;;;;12.20;8.48;;;0.40;99.90;;;;;;4980201;28;20026;-76
2023/04/03 01:28:27;;;;;;;11.32;9.55;;;0.40;99.90;;;;;;4980149;28;20035;-75
2023/04/03 01:31:23;;;;;;;14.02;8.52;;;0.30;99.90;;;;;;4978925;28;20034;-76
2023/04/03 01:33:49;;;;;;;11.20;8.15;;;0.30;99.90;;;;;;4977401;28;20023;-75
2023/04/03 01:36:33;;;;;;;13.02;8.32;;;0.30;99.90;;;;;;4959855;28;20023;-75
2023/04/03 01:39:00;;;;;;;12.93;9.90;;;0.30;99.90;;;;;;4977234;28;20133;-78
2023/04/03 01:41:25;;;;;;;13.52;8.73;;;0.30;99.90;;;;;;4959670;28;20026;-76
2023/04/03 01:43:51;;;;;;;11.05;8.93;;;0.30;99.90;;;;;;4977063;28;20027;-76
2023/04/03 01:46:18;;;;;;;10.52;8.63;;;0.30;99.90;;;;;;4977007;28;20081;-75
2023/04/03 01:48:44;;;;;;;8.95;7.68;;;0.20;99.90;;;;;;4959412;28;20382;-76
2023/04/03 01:51:10;;;;;;;13.20;9.45;;;0.20;99.90;;;;;;4959546;28;20041;-75
2023/04/03 01:53:36;;;;;;;11.80;8.75;;;0.20;99.90;;;;;;4976914;28;20421;-76
2023/04/03 01:56:02;;;;;;;11.80;8.38;;;0.10;99.90;;;;;;4959541;28;20036;-75
2023/04/03 01:58:27;;;;;;;10.15;7.43;;;0.10;99.90;;;;;;4976795;28;20026;-77
2023/04/03 02:00:53;;;;;;;10.10;8.25;;;0.10;99.90;;;;;;4976757;28;20038;-75
2023/04/03 02:03:19;;;;;;;11.98;9.07;;;0.10;99.90;;;;;;4976673;28;20384;-77
2023/04/03 02:05:45;;;;;;;9.02;7.70;;;0.10;99.90;;;;;;4976743;28;20034;-75
2023/04/03 02:08:11;;;;;;;8.10;6.97;;;0.10;99.90;;;;;;4959180;28;20039;-77
2023/04/03 02:10:36;;;;;;;9.77;8.75;;;0.10;99.90;;;;;;4976548;28;20385;-77
2023/04/03 02:13:02;;;;;;;10.70;7.75;;;0.00;99.90;;;;;;4976612;28;20052;-76
2023/04/03 02:15:28;;;;;;;9.10;7.10;;;0.10;99.90;;;;;;4976603;28;20042;-76
2023/04/03 02:17:53;;;;;;;8.93;7.50;;;0.10;99.90;;;;;;4959145;28;20015;-76
2023/04/03 02:20:19;;;;;;;10.65;7.70;;;0.00;99.90;;;;;;4958803;28;20483;-78
2023/04/03 02:22:45;;;;;;;11.75;8.77;;;0.00;99.90;;;;;;4958915;28;20022;-76
2023/04/03 02:25:12;;;;;;;12.80;8.77;;;0.10;99.90;;;;;;4958996;28;20374;-77
2023/04/03 02:27:38;;;;;;;10.13;7.65;;;0.00;99.90;;;;;;4976223;28;20520;-76
2023/04/03 02:30:05;;;;;;;9.68;8.30;;;0.00;99.90;;;;;;4976343;28;20061;-75
2023/04/03 02:32:30;;;;;;;11.75;8.55;;;0.00;99.90;;;;;;4976082;28;20126;-75
2023/04/03 02:34:56;;;;;;;10.05;8.25;;;0.00;99.90;;;;;;4958666;28;20105;-77
2023/04/03 02:37:22;;;;;;;12.02;7.90;;;-0.10;99.90;;;;;;4958719;28;20027;-76
2023/04/03 02:39:47;;;;;;;10.07;8.27;;;-0.10;99.90;;;;;;4958703;28;20022;-76
2023/04/03 02:42:13;;;;;;;10.15;7.68;;;-0.10;99.90;;;;;;4958232;28;20058;-77
2023/04/03 02:44:39;;;;;;;11.27;8.48;;;-0.10;99.90;;;;;;4975267;28;20093;-76
2023/04/03 02:47:05;;;;;;;10.02;8.82;;;-0.10;99.90;;;;;;4975834;28;20035;-76
2023/04/03 02:49:31;;;;;;;11.07;8.20;;;-0.20;99.90;;;;;;4958432;28;20544;-75
2023/04/03 02:51:56;;;;;;;10.40;7.82;;;-0.20;99.90;;;;;;4975699;28;20101;-77
2023/04/03 02:54:23;;;;;;;9.77;6.70;;;-0.30;99.90;;;;;;4958336;28;20019;-77
2023/04/03 02:56:49;;;;;;;11.48;7.90;;;-0.30;99.90;;;;;;4975737;28;20415;-76
2023/04/03 02:59:15;;;;;;;10.80;8.23;;;-0.30;99.90;;;;;;4975653;28;20079;-77
2023/04/03 03:01:40;;;;;;;12.18;9.52;;;-0.30;99.90;;;;;;4975722;28;20122;-75
2023/04/03 03:04:06;;;;;;;9.55;8.15;;;-0.40;99.90;;;;;;4975569;28;20019;-77
2023/04/03 03:06:32;;;;;;;10.40;8.45;;;-0.40;99.90;;;;;;4975577;28;20374;-75
2023/04/03 03:08:57;;;;;;;10.18;7.72;;;-0.40;99.90;;;;;;4975367;28;20059;-76
2023/04/03 03:11:23;;;;;;;8.98;6.90;;;-0.40;99.90;;;;;;4975396;28;20030;-75
2023/04/03 03:13:48;;;;;;;10.27;7.40;;;-0.40;99.90;;;;;;4975520;28;20019;-75
2023/04/03 03:16:14;;;;;;;8.85;7.95;;;-0.50;99.90;;;;;;4957983;28;20027;-75
2023/04/03 03:18:40;;;;;;;12.02;7.22;;;-0.50;99.90;;;;;;4975229;28;20022;-75
2023/04/03 03:21:05;;;;;;;6.75;6.20;;;-0.50;99.90;;;;;;4975232;28;20053;-76
2023/04/03 03:23:32;;;;;;;8.07;7.28;;;-0.50;99.90;;;;;;4975189;28;20019;-78
2023/04/03 03:25:59;;;;;;;10.30;6.78;;;-0.50;99.90;;;;;;4957959;28;20353;-76
2023/04/03 03:28:25;;;;;;;7.57;6.20;;;-0.50;99.90;;;;;;4957774;28;20066;-75
2023/04/03 03:30:51;;;;;;;8.23;5.88;;;-0.50;99.90;;;;;;4957644;28;20015;-76
2023/04/03 03:33:18;;;;;;;10.23;8.18;;;-0.50;99.90;;;;;;4957454;28;20034;-76
2023/04/03 03:35:44;;;;;;;8.63;6.97;;;-0.60;99.90;;;;;;4957691;28;20501;-75
2023/04/03 03:38:10;;;;;;;11.05;9.20;;;-0.50;99.90;;;;;;4957632;28;20453;-76
2023/04/03 03:40:36;;;;;;;8.18;6.65;;;-0.60;99.90;;;;;;4957606;28;20110;-77
2023/04/03 03:43:01;;;;;;;8.25;6.72;;;-0.60;99.90;;;;;;4974860;28;20117;-75
2023/04/03 03:45:27;;;;;;;8.50;7.03;;;-0.60;99.90;;;;;;4974859;28;20019;-75
2023/04/03 03:47:53;;;;;;;6.10;5.28;;;-0.60;99.90;;;;;;4957354;28;20046;-76
2023/04/03 03:50:18;;;;;;;8.52;6.38;;;-0.70;99.90;;;;;;4957508;28;20429;-76
2023/04/03 03:52:44;;;;;;;9.07;8.18;;;-0.60;99.90;;;;;;4974745;28;20027;-75
2023/04/03 03:55:10;;;;;;;7.18;5.93;;;-0.60;99.90;;;;;;4957031;28;20362;-76
2023/04/03 03:57:36;;;;;;;5.63;5.13;;;-0.70;99.90;;;;;;4957156;28;20118;-76
2023/04/03 04:00:03;;;;;;;8.70;6.85;;;-0.80;99.90;;;;;;4974721;28;20030;-77
2023/04/03 04:02:29;;;;;;;7.22;6.10;;;-0.80;99.90;;;;;;4957343;28;20078;-75
2023/04/03 04:04:54;;;;;;;8.13;5.80;;;-0.80;99.90;;;;;;4957269;28;20057;-77
2023/04/03 04:07:20;;;;;;;11.13;7.80;;;-0.80;99.90;;;;;;4957212;28;20058;-77
2023/04/03 04:09:45;;;;;;;6.43;5.72;;;-0.80;99.90;;;;;;4957194;28;20556;-76
2023/04/03 04:12:11;;;;;;;5.32;4.53;;;-0.90;99.90;;;;;;4973432;28;20713;-75
2023/04/03 04:14:37;;;;;;;11.82;5.95;;;-1.00;99.90;;;;;;4974136;28;20069;-76
2023/04/03 04:17:02;;;;;;;8.07;6.40;;;-1.00;99.90;;;;;;4974373;28;20237;-75
2023/04/03 04:19:28;;;;;;;12.48;7.05;;;-1.10;99.90;;;;;;4974096;28;20027;-77
2023/04/03 04:21:54;;;;;;;12.38;7.45;;;-1.20;99.90;;;;;;4957120;28;20031;-76
2023/04/03 04:24:20;;;;;;;10.60;6.47;;;-1.20;99.90;;;;;;4974236;28;20033;-77
2023/04/03 04:26:45;;;;;;;6.95;4.97;;;-1.20;99.90;;;;;;4957627;28;20025;-76
2023/04/03 04:29:11;;;;;;;8.55;5.75;;;-1.30;99.90;;;;;;4970417;28;20035;-75
2023/04/03 04:31:36;;;;;;;7.47;5.68;;;-1.20;99.90;;;;;;4953169;28;20677;-77
2023/04/03 04:34:02;;;;;;;7.82;5.32;;;-1.30;99.90;;;;;;4971412;28;20086;-76
2023/04/03 04:36:28;;;;;;;5.38;4.78;;;-1.30;99.90;;;;;;4953958;28;20027;-76
2023/04/03 04:38:53;;;;;;;6.40;4.85;;;-1.30;99.90;;;;;;4971001;28;20026;-77
2023/04/03 04:41:22;;;;;;;8.30;4.72;;;-1.40;99.90;;;;;;4953168;28;20716;-76
2023/04/03 04:43:51;;;;;;;8.15;4.60;;;-1.30;99.90;;;;;;4971892;28;20373;-76
2023/04/03 04:46:18;;;;;;;7.57;4.85;;;-1.40;99.90;;;;;;4972123;28;20027;-77
2023/04/03 04:48:44;;;;;;;5.40;4.53;;;-1.30;99.90;;;;;;4972091;28;20122;-75
2023/04/03 04:51:10;;;;;;;8.98;4.80;;;-1.30;99.90;;;;;;4972202;28;20041;-76
2023/04/03 04:53:35;;;;;;;6.43;4.78;;;-1.40;99.90;;;;;;4954662;28;20440;-76
2023/04/03 04:56:01;;;;;;;4.72;4.18;;;-1.40;99.90;;;;;;4972155;28;20035;-75
2023/04/03 04:58:27;;;;;;;6.95;4.07;;;-1.40;99.90;;;;;;4972608;28;20102;-76
2023/04/03 05:01:03;;;;;;;9.30;4.75;;;-1.40;99.90;;;;;;4977578;28;20053;-76
2023/04/03 05:03:29;;;;;;;84.75;47.30;;;-1.40;99.90;;;;;;4954621;28;20031;-76
2023/04/03 05:05:54;;;;;;;7.60;4.55;;;-1.30;99.90;;;;;;4956003;28;20027;-77
2023/04/03 05:08:20;;;;;;;4.88;3.67;;;-1.30;99.90;;;;;;4958353;28;20069;-75
2023/04/03 05:10:46;;;;;;;6.65;4.10;;;-1.40;99.90;;;;;;4980451;28;20472;-75
2023/04/03 05:13:12;;;;;;;8.82;4.38;;;-1.40;99.90;;;;;;4985729;28;20102;-75
2023/04/03 05:15:38;;;;;;;5.13;4.18;;;-1.40;99.90;;;;;;4983544;28;20038;-75
2023/04/03 05:18:04;;;;;;;6.28;3.63;;;-1.30;99.90;;;;;;4960981;28;20031;-75
2023/04/03 05:20:31;;;;;;;7.95;4.53;;;-1.30;99.90;;;;;;4956800;29;20043;-76
2023/04/03 05:22:57;;;;;;;3.42;3.13;;;-1.30;99.90;;;;;;4975757;28;20035;-77
2023/04/03 05:25:23;;;;;;;8.32;3.22;;;-1.30;99.90;;;;;;4956206;28;20034;-76
2023/04/03 05:27:49;;;;;;;7.13;3.28;;;-1.30;99.90;;;;;;4982844;28;20037;-77
2023/04/03 05:30:14;;;;;;;3.90;2.70;;;-1.30;99.90;;;;;;4964267;28;20411;-77
2023/04/03 05:32:40;;;;;;;5.65;4.07;;;-1.40;99.90;;;;;;4956314;28;20032;-76
2023/04/03 05:35:07;;;;;;;5.53;4.28;;;-1.30;99.90;;;;;;4956959;29;20023;-77
2023/04/03 05:37:33;;;;;;;5.10;3.85;;;-1.30;99.90;;;;;;4977964;28;20030;-76
2023/04/03 05:39:58;;;;;;;6.50;3.45;;;-1.20;99.90;;;;;;4982785;28;20030;-77
2023/04/03 05:42:24;;;;;;;5.50;3.10;;;-1.30;99.90;;;;;;4982032;28;20037;-76
2023/04/03 05:44:50;;;;;;;4.63;2.92;;;-1.20;99.90;;;;;;4995030;28;20018;-77
2023/04/03 05:47:16;;;;;;;3.45;2.97;;;-1.20;99.90;;;;;;4959582;28;20023;-74
2023/04/03 05:49:42;;;;;;;4.35;3.22;;;-1.20;99.90;;;;;;4987023;28;20053;-75
2023/04/03 05:52:21;;;;;;;10.73;6.03;;;-1.20;99.90;;;;;;4967184;28;20062;-74
2023/04/03 05:54:48;;;;;;;7.68;6.10;;;-1.20;99.90;;;;;;4959461;28;20046;-75
2023/04/03 05:57:15;;;;;;;5.13;3.58;;;-1.10;99.90;;;;;;4959183;28;20428;-75
2023/04/03 05:59:42;;;;;;;8.60;3.53;;;-1.20;99.90;;;;;;4976083;28;20081;-75
2023/04/03 06:02:11;;;;;;;5.30;3.40;;;-1.20;99.90;;;;;;4976841;28;20023;-76
2023/04/03 06:04:37;;;;;;;4.15;3.47;;;-1.20;99.90;;;;;;4976011;28;20122;-75
2023/04/03 06:07:03;;;;;;;7.18;3.92;;;-1.20;99.90;;;;;;4959487;28;20102;-74
2023/04/03 06:09:29;;;;;;;5.82;3.88;;;-1.20;99.90;;;;;;4976665;28;20034;-74
2023/04/03 06:11:58;;;;;;;5.55;4.35;;;-1.20;99.90;;;;;;4959329;28;20018;-76
2023/04/03 06:14:25;;;;;;;10.82;5.18;;;-1.10;99.90;;;;;;4976595;28;20043;-75
2023/04/03 06:16:51;;;;;;;11.40;4.97;;;-1.10;99.90;;;;;;4958975;28;20092;-75
2023/04/03 06:19:17;;;;;;;5.05;4.47;;;-1.10;99.90;;;;;;4976515;28;20042;-75
2023/04/03 06:21:42;;;;;;;5.47;3.97;;;-1.10;99.90;;;;;;4959000;28;20405;-75
2023/04/03 06:24:09;;;;;;;5.05;3.70;;;-1.10;99.90;;;;;;4959057;28;20030;-74
2023/04/03 06:26:35;;;;;;;4.40;3.70;;;-1.00;99.90;;;;;;4959033;28;20067;-75
2023/04/03 06:29:02;;;;;;;6.72;3.60;;;-1.00;99.90;;;;;;4976296;28;20078;-74
2023/04/03 06:31:27;;;;;;;4.50;4.10;;;-1.00;99.90;;;;;;4976298;28;20022;-75
2023/04/03 06:33:53;;;;;;;5.75;4.30;;;-1.00;99.90;;;;;;4976379;28;20106;-76
2023/04/03 06:36:20;;;;;;;4.50;3.40;;;-0.90;99.90;;;;;;4958792;28;20402;-76
2023/04/03 06:38:46;;;;;;;5.90;3.58;;;-1.00;99.90;;;;;;4958871;28;20027;-76
2023/04/03 06:41:12;;;;;;;6.25;3.88;;;-0.90;99.90;;;;;;4958820;28;20019;-75
2023/04/03 06:43:37;;;;;;;16.25;7.22;;;-0.90;99.90;;;;;;4958657;28;20050;-74
2023/04/03 06:46:03;;;;;;;6.85;4.45;;;-0.80;99.90;;;;;;4976067;28;20027;-75
2023/04/03 06:48:29;;;;;;;15.23;9.57;;;-0.60;99.90;;;;;;4958519;28;20511;-76
2023/04/03 06:50:55;;;;;;;6.15;4.65;;;-0.70;99.90;;;;;;4975810;28;20094;-77
2023/04/03 06:53:21;;;;;;;6.45;4.00;;;-0.70;99.90;;;;;;4958549;28;20026;-75
2023/04/03 06:55:47;;;;;;;6.25;3.80;;;-0.70;99.90;;;;;;4958586;28;20433;-75
2023/04/03 06:58:13;;;;;;;9.60;5.28;;;-0.80;99.90;;;;;;4975712;28;20027;-74
2023/04/03 07:00:39;;;;;;;7.70;3.85;;;-0.70;99.90;;;;;;4975547;28;20450;-75
2023/04/03 07:03:05;;;;;;;5.63;4.28;;;-0.60;99.90;;;;;;4975723;28;20023;-75
2023/04/03 07:05:31;;;;;;;13.07;6.40;;;-0.40;99.90;;;;;;4958368;28;20023;-76
2023/04/03 07:07:56;;;;;;;19.92;9.32;;;-0.50;99.90;;;;;;4975433;28;20058;-75
2023/04/03 07:10:22;;;;;;;3.92;2.92;;;-0.30;99.90;;;;;;4958299;28;20073;-77
2023/04/03 07:12:47;;;;;;;4.35;3.08;;;-0.50;99.90;;;;;;4958289;28;20056;-74
2023/04/03 07:15:14;;;;;;;5.75;3.47;;;-0.50;99.90;;;;;;4975465;28;20492;-75
2023/04/03 07:17:40;;;;;;;4.30;3.22;;;-0.50;99.90;;;;;;4958082;28;20147;-75
2023/04/03 07:20:07;;;;;;;12.50;6.65;;;-0.50;99.90;;;;;;4957892;28;20062;-76
2023/04/03 07:22:33;;;;;;;5.10;3.78;;;-0.50;99.90;;;;;;4975199;28;20102;-77
2023/04/03 07:24:59;;;;;;;17.20;7.95;;;-0.70;99.90;;;;;;4975270;28;20106;-76
2023/04/03 07:27:25;;;;;;;4.90;3.05;;;-0.50;99.90;;;;;;4957726;28;20015;-74
2023/04/03 07:29:51;;;;;;;4.38;2.90;;;-0.40;99.90;;;;;;4974452;28;20094;-75
2023/04/03 07:32:17;;;;;;;5.72;3.28;;;-0.50;99.90;;;;;;4975254;28;20114;-76
2023/04/03 07:34:43;;;;;;;4.97;2.60;;;-0.50;99.90;;;;;;4957734;28;20030;-74
2023/04/03 07:37:09;;;;;;;7.82;4.15;;;-0.50;99.90;;;;;;4975213;28;20030;-75
2023/04/03 07:39:34;;;;;;;4.85;2.97;;;-0.40;99.90;;;;;;4974913;28;20519;-77
2023/04/03 07:42:01;;;;;;;5.15;4.15;;;-0.40;99.90;;;;;;4957679;28;20050;-76
2023/04/03 07:44:27;;;;;;;3.42;2.80;;;-0.30;99.90;;;;;;4957648;28;20499;-76
2023/04/03 07:46:54;;;;;;;3.10;2.80;;;-0.30;99.90;;;;;;4974990;28;20102;-75
2023/04/03 07:49:22;;;;;;;6.85;3.88;;;-0.40;99.90;;;;;;4974803;28;20031;-75
2023/04/03 07:51:48;;;;;;;4.32;2.28;;;-0.50;99.00;;;;;;4957562;28;20050;-75
2023/04/03 07:54:14;;;;;;;5.03;4.32;;;-0.60;91.00;;;;;;4957574;28;20418;-77
2023/04/03 07:56:42;;;;;;;6.50;4.38;;;-0.40;94.30;;;;;;4975024;28;20365;-75
2023/04/03 07:59:08;;;;;;;4.53;4.13;;;-0.40;95.60;;;;;;4974760;28;20081;-75
2023/04/03 08:01:34;;;;;;;7.03;3.58;;;-0.30;95.80;;;;;;4974663;28;20026;-75
2023/04/03 08:04:00;;;;;;;3.50;3.10;;;-0.30;95.20;;;;;;4974711;28;20031;-76
2023/04/03 08:06:25;;;;;;;3.78;2.78;;;-0.40;93.10;;;;;;4974623;28;20073;-75
2023/04/03 08:08:51;;;;;;;3.42;3.10;;;-0.40;89.50;;;;;;4974645;28;20034;-77
2023/04/03 08:11:18;;;;;;;2.60;2.40;;;-0.30;92.00;;;;;;4974804;28;20027;-76
2023/04/03 08:13:44;;;;;;;5.25;2.88;;;-0.40;89.00;;;;;;4974780;28;20565;-77
2023/04/03 08:16:17;;;;;;;5.00;2.70;;;-0.50;87.10;;;;;;4974651;28;20026;-75
2023/04/03 08:18:42;;;;;;;3.30;2.90;;;-0.30;89.40;;;;;;4974549;28;20030;-76
2023/04/03 08:21:12;;;;;;;8.85;4.82;;;-0.20;90.60;;;;;;4974639;28;20047;-77
2023/04/03 08:23:39;;;;;;;7.72;5.07;;;-0.30;87.90;;;;;;4957164;28;20556;-75
2023/04/03 08:26:13;;;;;;;7.28;4.68;;;-0.10;89.10;;;;;;4957235;28;20026;-76
2023/04/03 08:28:40;;;;;;;8.23;4.28;;;0.00;89.20;;;;;;4957125;28;20073;-77
2023/04/03 08:31:07;;;;;;;4.13;3.75;;;0.20;87.50;;;;;;4974654;28;20023;-77
2023/04/03 08:33:36;;;;;;;8.52;7.63;;;-0.20;83.40;;;;;;4974333;28;20389;-77
2023/04/03 08:36:03;;;;;;;5.93;4.40;;;-0.20;83.50;;;;;;4974528;28;20022;-75
2023/04/03 08:38:29;;;;;;;6.03;3.05;;;-0.30;84.40;;;;;;4974348;28;20102;-75
2023/04/03 08:41:33;;;;;;;6.68;3.78;;;-0.40;81.20;;;;;;4976055;28;20078;-78
2023/04/03 08:44:22;;;;;;;8.13;3.50;;;-0.30;82.30;;;;;;4966389;28;20054;-78
2023/04/03 08:47:06;;;;;;;7.38;4.70;;;-0.10;82.90;;;;;;4960964;28;20022;-77
2023/04/03 08:49:47;;;;;;;4.93;3.03;;;0.00;84.40;;;;;;4960781;28;20117;-75
2023/04/03 08:52:18;;;;;;;8.90;4.78;;;0.10;83.80;;;;;;4961002;28;20492;-77
2023/04/03 08:54:55;;;;;;;4.68;2.95;;;0.20;82.70;;;;;;4978062;28;20070;-75
2023/04/03 08:57:30;;;;;;;4.93;2.97;;;0.20;82.10;;;;;;4978050;28;20034;-75
2023/04/03 08:59:59;;;;;;;6.57;3.95;;;0.40;83.30;;;;;;4978080;28;20022;-77
2023/04/03 09:02:33;;;;;;;4.70;3.10;;;0.50;83.70;;;;;;4960515;28;20026;-75
2023/04/03 09:05:01;;;;;;;3.75;2.63;;;0.60;81.40;;;;;;4960603;28;20464;-78
2023/04/03 09:07:39;;;;;;;3.75;2.78;;;0.50;81.80;;;;;;4977686;28;20027;-77
2023/04/03 09:10:05;;;;;;;3.50;2.83;;;0.40;81.60;;;;;;4960639;28;20370;-77
2023/04/03 09:12:39;;;;;;;3.45;2.75;;;0.20;81.50;;;;;;4977614;28;20066;-75
2023/04/03 09:15:25;;;;;;;3.63;2.83;;;0.20;82.10;;;;;;4977932;28;20460;-75
2023/04/03 09:18:02;;;;;;;6.50;3.50;;;0.40;83.80;;;;;;4977661;28;20094;-76
2023/04/03 09:20:53;;;;;;;17.60;9.50;;;0.50;82.50;;;;;;4960014;28;20053;-78
2023/04/03 09:23:45;;;;;;;5.20;3.92;;;0.50;83.10;;;;;;4977477;28;20034;-75
2023/04/03 09:26:25;;;;;;;6.15;3.58;;;0.70;81.60;;;;;;4955949;28;20035;-75
2023/04/03 09:28:53;;;;;;;6.13;4.03;;;0.60;82.30;;;;;;4960006;28;20057;-77
2023/04/03 09:31:25;;;;;;;6.93;4.10;;;0.70;83.20;;;;;;4960386;28;20027;-75
2023/04/03 09:33:56;;;;;;;8.00;3.97;;;0.70;81.90;;;;;;4977394;28;20078;-78
2023/04/03 09:36:59;;;;;;;6.53;3.90;;;0.40;80.60;;;;;;4977271;28;20030;-76
2023/04/03 09:39:28;;;;;;;15.68;7.03;;;0.20;82.90;;;;;;4917898;29;20413;-75
2023/04/03 09:42:05;;;;;;;12.70;7.90;;;0.40;83.60;;;;;;4967108;28;20038;-76
2023/04/03 09:44:36;;;;;;;7.75;3.70;;;0.70;83.90;;;;;;4977227;28;20031;-77
2023/04/03 09:47:35;;;;;;;10.13;5.68;;;0.50;81.50;;;;;;4977205;28;20023;-76
2023/04/03 09:50:19;;;;;;;5.80;3.58;;;0.90;83.10;;;;;;4977257;28;20031;-76
2023/04/03 09:52:48;;;;;;;8.13;5.57;;;0.90;79.30;;;;;;4976585;28;20388;-75
2023/04/03 09:55:16;;;;;;;12.05;4.63;;;1.10;81.00;;;;;;4959615;28;20026;-77
2023/04/03 09:57:42;;;;;;;11.65;4.55;;;0.90;79.70;;;;;;4959602;28;20066;-75
2023/04/03 10:00:36;;;;;;;10.30;5.97;;;1.10;81.80;;;;;;4976999;28;20030;-77
2023/04/03 10:03:03;;;;;;;5.78;3.10;;;1.40;81.60;;;;;;4973317;28;20501;-75
2023/04/03 10:05:36;;;;;;;7.18;3.65;;;1.60;79.40;;;;;;4959329;28;20038;-75
2023/04/03 10:08:14;;;;;;;9.32;4.20;;;1.70;78.60;;;;;;4976656;28;20393;-77
2023/04/03 10:10:45;;;;;;;4.93;3.55;;;1.80;77.00;;;;;;4976792;28;20019;-75
2023/04/03 10:13:16;;;;;;;7.30;2.70;;;2.00;77.20;;;;;;4976682;28;20034;-76
2023/04/03 10:16:01;;;;;;;2.72;2.53;;;1.80;76.60;;;;;;4959308;28;20078;-75
2023/04/03 10:18:29;;;;;;;4.28;2.63;;;2.00;75.20;;;;;;4959320;28;20027;-77
2023/04/03 10:21:02;;;;;;;7.22;3.38;;;2.00;74.20;;;;;;4959012;28;20065;-78
2023/04/03 10:23:34;;;;;;;3.15;2.40;;;2.10;75.40;;;;;;4959160;28;20358;-77
2023/04/03 10:26:29;;;;;;;9.10;3.78;;;1.90;73.40;;;;;;4976387;28;20054;-78
2023/04/03 10:29:16;;;;;;;5.72;2.75;;;2.00;75.60;;;;;;4959008;28;20042;-76
2023/04/03 10:32:05;;;;;;;4.75;3.00;;;1.90;73.10;;;;;;4958926;28;20015;-76
2023/04/03 10:34:42;;;;;;;5.95;2.80;;;2.10;77.00;;;;;;4958796;28;20134;-76
2023/04/03 10:37:32;;;;;;;4.18;2.60;;;2.30;76.60;;;;;;4958832;28;20029;-78
2023/04/03 10:40:04;;;;;;;6.47;3.58;;;2.30;74.30;;;;;;4976172;28;20050;-76
2023/04/03 10:42:41;;;;;;;4.13;2.75;;;2.30;74.90;;;;;;4958629;28;20027;-77
2023/04/03 10:45:26;;;;;;;6.10;2.60;;;2.40;72.90;;;;;;4976196;28;20031;-76
2023/04/03 10:48:01;;;;;;;5.05;2.85;;;2.30;74.10;;;;;;4958683;28;20062;-75
2023/04/03 10:50:39;;;;;;;3.60;3.10;;;2.00;73.80;;;;;;4958636;28;20027;-78
2023/04/03 10:53:32;;;;;;;5.90;3.00;;;1.90;73.90;;;;;;4975961;28;20023;-78
2023/04/03 10:56:16;;;;;;;7.35;4.88;;;2.00;72.80;;;;;;4964622;28;20096;-76
2023/04/03 10:58:54;;;;;;;6.22;3.95;;;1.90;71.10;;;;;;4975886;28;20029;-76
2023/04/03 11:01:31;;;;;;;5.70;2.67;;;2.20;73.00;;;;;;4958538;28;20408;-78
2023/04/03 11:04:00;;;;;;;6.07;2.70;;;1.90;68.50;;;;;;4974922;28;20054;-78
2023/04/03 11:06:34;;;;;;;2.63;1.95;;;1.70;68.40;;;;;;4975682;28;20050;-78
2023/04/03 11:09:14;;;;;;;4.32;3.90;;;1.90;67.30;;;;;;4975651;28;20118;-78
2023/04/03 11:11:42;;;;;;;4.05;2.70;;;1.90;67.00;;;;;;4958231;28;20027;-75
2023/04/03 11:14:30;;;;;;;3.40;2.72;;;2.10;69.10;;;;;;4975484;28;20033;-76
2023/04/03 11:17:19;;;;;;;3.72;3.13;;;2.40;69.50;;;;;;4975581;28;20049;-77
2023/04/03 11:19:54;;;;;;;8.40;3.97;;;2.50;69.10;;;;;;4975319;28;20102;-78
2023/04/03 11:22:41;;;;;;;3.78;2.35;;;2.30;68.60;;;;;;4975361;28;20062;-76
2023/04/03 11:25:22;;;;;;;3.75;2.55;;;2.10;68.90;;;;;;4975132;28;20086;-76
2023/04/03 11:27:58;;;;;;;5.18;2.78;;;2.10;65.50;;;;;;4957871;28;20057;-76
2023/04/03 11:30:48;;;;;;;2.65;2.13;;;2.30;64.50;;;;;;4975171;28;20023;-77
2023/04/03 11:33:32;;;;;;;7.38;3.40;;;2.60;66.40;;;;;;4957660;28;20034;-78
2023/04/03 11:36:04;;;;;;;3.40;2.28;;;2.40;62.30;;;;;;4957755;28;20036;-76
2023/04/03 11:38:36;;;;;;;3.40;2.40;;;2.40;61.20;;;;;;4975049;28;20031;-76
2023/04/03 11:41:04;;;;;;;3.05;2.10;;;2.30;62.90;;;;;;4975133;28;20046;-76
2023/04/03 11:43:31;;;;;;;5.78;3.08;;;2.30;64.00;;;;;;4957654;28;20023;-78
2023/04/03 11:46:05;;;;;;;7.43;4.00;;;2.50;66.70;;;;;;4974988;28;20393;-76
2023/04/03 11:48:31;;;;;;;4.63;2.90;;;2.70;66.20;;;;;;4957466;28;20047;-78
2023/04/03 11:51:16;;;;;;;4.20;3.13;;;3.00;65.40;;;;;;4957692;28;20413;-78
2023/04/03 11:53:42;;;;;;;5.95;3.17;;;3.10;63.10;;;;;;4974912;28;20434;-76
2023/04/03 11:56:25;;;;;;;3.95;2.10;;;3.30;63.50;;;;;;4974843;28;20101;-76
2023/04/03 11:59:10;;;;;;;3.38;2.65;;;3.10;61.20;;;;;;4974820;28;20496;-76
2023/04/03 12:01:54;;;;;;;18.83;7.72;;;3.10;60.90;;;;;;4957314;28;20125;-78
2023/04/03 12:04:23;;;;;;;4.35;2.45;;;3.30;63.30;;;;;;4957266;28;20096;-76
2023/04/03 12:06:48;;;;;;;4.82;3.15;;;3.00;59.20;;;;;;4957334;28;20069;-76
2023/04/03 12:09:27;;;;;;;4.10;2.92;;;3.20;61.90;;;;;;4957414;28;20566;-78
2023/04/03 12:11:54;;;;;;;6.22;3.70;;;3.00;62.50;;;;;;4974665;28;20123;-78
2023/04/03 12:14:24;;;;;;;9.23;2.92;;;3.00;63.90;;;;;;4974567;28;20030;-77
2023/04/03 12:16:51;;;;;;;6.00;2.65;;;2.70;62.20;;;;;;4956795;28;20485;-76
2023/04/03 12:19:34;;;;;;;3.00;2.72;;;2.60;61.80;;;;;;4974276;28;20536;-78
2023/04/03 12:21:59;;;;;;;4.45;3.08;;;2.60;61.10;;;;;;4957109;28;20401;-76
2023/04/03 12:24:33;;;;;;;2.13;1.83;;;2.70;60.00;;;;;;4957066;28;20034;-76
2023/04/03 12:27:17;;;;;;;2.38;2.17;;;2.90;62.50;;;;;;4957092;28;20397;-78
2023/04/03 12:29:47;;;;;;;7.38;3.70;;;3.00;61.10;;;;;;4974538;28;20049;-78
2023/04/03 12:32:37;;;;;;;5.28;2.30;;;3.40;61.90;;;;;;4957019;28;20030;-78
2023/04/03 12:35:41;;;;;;;3.63;2.97;;;3.40;61.00;;;;;;4957188;28;20501;-77
2023/04/03 12:38:29;;;;;;;2.90;2.60;;;3.20;60.20;;;;;;4957110;28;20126;-78
2023/04/03 12:41:04;;;;;;;4.22;2.42;;;2.70;59.50;;;;;;4974536;28;20031;-76
2023/04/03 12:43:53;;;;;;;2.70;1.85;;;2.80;60.00;;;;;;4974398;28;20069;-76
2023/04/03 12:46:21;;;;;;;3.28;2.25;;;3.10;61.60;;;;;;4956974;28;20026;-79
2023/04/03 12:48:56;;;;;;;6.63;3.58;;;3.10;59.60;;;;;;4974282;28;20388;-76
2023/04/03 12:51:42;;;;;;;11.52;3.42;;;3.40;60.00;;;;;;4974306;28;20029;-76
2023/04/03 12:54:18;;;;;;;5.07;3.35;;;3.20;59.20;;;;;;4957001;28;20555;-78
2023/04/03 12:56:44;;;;;;;9.88;5.38;;;2.80;59.10;;;;;;4956866;28;20085;-76
2023/04/03 12:59:20;;;;;;;6.13;3.22;;;2.50;58.70;;;;;;4956943;28;20027;-78
2023/04/03 13:01:57;;;;;;;8.82;4.88;;;2.60;58.70;;;;;;4957040;28;20388;-76
2023/04/03 13:04:23;;;;;;;3.88;3.47;;;2.70;59.70;;;;;;4956926;28;20027;-77
2023/04/03 13:06:49;;;;;;;3.67;3.00;;;2.90;61.50;;;;;;4974151;28;20030;-75